Terminal Aerodrome Forecast
Issued by NWS

Home | Current Version | Previous Version | Text Only | Print | Product List | Glossary Off
Versions: 1 2 3 4 5 6 7 8 9 10 11 12 13 14 15 16 17 18 19 20 21 22 23 24 25 26 27 28 29 30 31 32 33 34

000
FTUS43 KGRB 140500
TAFRHI
TAF
KRHI 140520Z 1406/1506 VRB03KT P6SM BKN060
     FM141500 22010G16KT P6SM SCT050 BKN080
     FM141900 24010G15KT P6SM VCSH BKN050
     FM142300 26005KT P6SM SCT050 SCT080=

USA.gov is the U.S. government's official web portal to all federal, state and local government web resources and services.